Time,TemperatureF,DewpointF,PressureIn,WindDirection,WindDirectionDegrees,WindSpeedMPH,WindSpeedGustMPH,Humidity,HourlyPrecipIn,Conditions,Clouds,dailyrainin,SoftwareType,DateUTC
2013-03-22 00:07:00,23.0,17.0,30.08,ENE,57,4.0,5.0,76,0.00,,,0.00,weatherlink.com 1.10,2013-03-22 05:07:00,
2013-03-22 00:22:00,22.8,16.0,30.09,ENE,57,0.0,6.0,76,0.00,,,0.00,weatherlink.com 1.10,2013-03-22 05:22:00,
2013-03-22 00:37:00,22.6,16.0,30.09,ENE,57,0.0,0.0,76,0.00,,,0.00,weatherlink.com 1.10,2013-03-22 05:37:00,
2013-03-22 00:52:00,22.3,16.0,30.09,ENE,57,0.0,0.0,76,0.00,,,0.00,weatherlink.com 1.10,2013-03-22 05:52:00,
2013-03-22 01:07:00,21.9,16.0,30.09,ENE,57,0.0,4.0,77,0.00,,,0.00,weatherlink.com 1.10,2013-03-22 06:07:00,
2013-03-22 01:22:00,21.6,16.0,30.09,ENE,57,0.0,0.0,78,0.00,,,0.00,weatherlink.com 1.10,2013-03-22 06:22:00,
2013-03-22 01:37:00,21.4,16.0,30.09,ENE,57,0.0,5.0,79,0.00,,,0.00,weatherlink.com 1.10,2013-03-22 06:37:00,
2013-03-22 01:52:00,21.4,16.0,30.09,ENE,57,2.0,4.0,80,0.00,,,0.00,weatherlink.com 1.10,2013-03-22 06:52:00,
2013-03-22 02:07:00,21.4,16.0,30.09,ENE,57,0.0,6.0,80,0.00,,,0.00,weatherlink.com 1.10,2013-03-22 07:07:00,
2013-03-22 02:22:00,21.2,16.0,30.09,ENE,57,0.0,4.0,80,0.00,,,0.00,weatherlink.com 1.10,2013-03-22 07:22:00,
2013-03-22 02:37:00,21.1,16.0,30.10,ENE,57,4.0,4.0,80,0.00,,,0.00,weatherlink.com 1.10,2013-03-22 07:37:00,
2013-03-22 02:52:00,21.0,16.0,30.09,ENE,57,0.0,0.0,80,0.00,,,0.00,weatherlink.com 1.10,2013-03-22 07:52:00,
2013-03-22 03:07:00,20.9,16.0,30.10,ENE,57,0.0,0.0,80,0.00,,,0.00,weatherlink.com 1.10,2013-03-22 08:07:00,
2013-03-22 03:22:00,20.6,15.0,30.10,ENE,57,0.0,0.0,80,0.00,,,0.00,weatherlink.com 1.10,2013-03-22 08:22:00,
2013-03-22 03:37:00,20.4,15.0,30.10,ENE,57,0.0,0.0,81,0.00,,,0.00,weatherlink.com 1.10,2013-03-22 08:37:00,
2013-03-22 03:52:00,20.3,16.0,30.10,ENE,57,0.0,0.0,82,0.00,,,0.00,weatherlink.com 1.10,2013-03-22 08:52:00,
2013-03-22 04:07:00,20.1,15.0,30.10,ENE,57,0.0,4.0,82,0.00,,,0.00,weatherlink.com 1.10,2013-03-22 09:07:00,
2013-03-22 04:22:00,20.2,16.0,30.09,ENE,57,0.0,0.0,83,0.00,,,0.00,weatherlink.com 1.10,2013-03-22 09:22:00,
2013-03-22 04:37:00,20.3,16.0,30.09,ENE,57,0.0,5.0,83,0.00,,,0.00,weatherlink.com 1.10,2013-03-22 09:37:00,
2013-03-22 04:52:00,20.3,16.0,30.08,ENE,57,0.0,2.0,83,0.00,,,0.00,weatherlink.com 1.10,2013-03-22 09:52:00,
2013-03-22 05:07:00,20.1,16.0,30.09,ENE,57,0.0,4.0,83,0.00,,,0.00,weatherlink.com 1.10,2013-03-22 10:07:00,
2013-03-22 05:22:00,19.8,15.0,30.09,ENE,57,0.0,3.0,83,0.00,,,0.00,weatherlink.com 1.10,2013-03-22 10:22:00,
2013-03-22 05:37:00,19.6,16.0,30.09,ENE,57,0.0,0.0,84,0.00,,,0.00,weatherlink.com 1.10,2013-03-22 10:37:00,
2013-03-22 06:08:00,19.3,15.0,30.09,ENE,57,0.0,4.0,84,0.00,,,0.00,weatherlink.com 1.10,2013-03-22 11:08:00,
2013-03-22 06:23:00,19.1,15.0,30.09,ENE,57,0.0,0.0,85,0.00,,,0.00,weatherlink.com 1.10,2013-03-22 11:23:00,
2013-03-22 06:38:00,18.8,15.0,30.09,ENE,57,0.0,0.0,85,0.00,,,0.00,weatherlink.com 1.10,2013-03-22 11:38:00,
2013-03-22 06:53:00,18.6,15.0,30.09,ENE,57,0.0,4.0,85,0.00,,,0.00,weatherlink.com 1.10,2013-03-22 11:53:00,
2013-03-22 07:08:00,18.4,15.0,30.09,ENE,57,0.0,6.0,85,0.00,,,0.00,weatherlink.com 1.10,2013-03-22 12:08:00,
2013-03-22 07:23:00,18.5,15.0,30.09,ENE,57,0.0,5.0,85,0.00,,,0.00,weatherlink.com 1.10,2013-03-22 12:23:00,
2013-03-22 07:38:00,18.6,15.0,30.09,ENE,57,2.0,6.0,84,0.00,,,0.00,weatherlink.com 1.10,2013-03-22 12:38:00,
2013-03-22 07:53:00,19.0,15.0,30.09,ENE,61,1.0,9.0,83,0.00,,,0.00,weatherlink.com 1.10,2013-03-22 12:53:00,
2013-03-22 08:08:00,19.5,15.0,30.09,ENE,63,4.0,10.0,82,0.00,,,0.00,weatherlink.com 1.10,2013-03-22 13:08:00,
2013-03-22 08:23:00,20.0,15.0,30.10,ENE,63,4.0,8.0,81,0.00,,,0.00,weatherlink.com 1.10,2013-03-22 13:23:00,
2013-03-22 08:38:00,21.0,15.0,30.10,ENE,69,4.0,9.0,79,0.00,,,0.00,weatherlink.com 1.10,2013-03-22 13:38:00,
2013-03-22 08:53:00,22.0,16.0,30.11,ENE,74,0.0,8.0,77,0.00,,,0.00,weatherlink.com 1.10,2013-03-22 13:53:00,
2013-03-22 09:08:00,23.0,16.0,30.10,ENE,74,7.0,7.0,75,0.00,,,0.00,weatherlink.com 1.10,2013-03-22 14:08:00,
2013-03-22 09:23:00,24.5,17.0,30.10,East,82,5.0,10.0,74,0.00,,,0.00,weatherlink.com 1.10,2013-03-22 14:23:00,
2013-03-22 09:38:00,25.6,18.0,30.09,East,87,2.0,11.0,72,0.00,,,0.00,weatherlink.com 1.10,2013-03-22 14:38:00,
2013-03-22 09:53:00,26.8,18.0,30.09,East,80,1.0,11.0,70,0.00,,,0.00,weatherlink.com 1.10,2013-03-22 14:53:00,
2013-03-22 10:08:00,27.6,19.0,30.08,ENE,74,4.0,11.0,70,0.00,,,0.00,weatherlink.com 1.10,2013-03-22 15:08:00,
2013-03-22 10:23:00,28.6,19.0,30.08,East,84,5.0,13.0,67,0.00,,,0.00,weatherlink.com 1.10,2013-03-22 15:23:00,
2013-03-22 10:38:00,29.0,19.0,30.07,East,99,5.0,10.0,66,0.00,,,0.00,weatherlink.com 1.10,2013-03-22 15:38:00,
2013-03-22 10:53:00,30.1,20.0,30.08,East,94,3.0,9.0,66,0.00,,,0.00,weatherlink.com 1.10,2013-03-22 15:53:00,
2013-03-22 11:08:00,30.7,21.0,30.08,ESE,123,3.0,9.0,66,0.00,,,0.00,weatherlink.com 1.10,2013-03-22 16:08:00,
2013-03-22 11:23:00,31.8,20.0,30.08,ESE,113,3.0,11.0,63,0.00,,,0.00,weatherlink.com 1.10,2013-03-22 16:23:00,
2013-03-22 11:38:00,33.3,20.0,30.07,SE,126,0.0,11.0,59,0.00,,,0.00,weatherlink.com 1.10,2013-03-22 16:38:00,
2013-03-22 11:53:00,33.0,20.0,30.08,SE,125,0.0,8.0,60,0.00,,,0.00,weatherlink.com 1.10,2013-03-22 16:53:00,
2013-03-22 12:08:00,33.2,19.0,30.08,ESE,120,0.0,9.0,57,0.00,,,0.00,weatherlink.com 1.10,2013-03-22 17:08:00,
2013-03-22 12:23:00,33.9,21.0,30.07,ESE,105,7.0,10.0,59,0.00,,,0.00,weatherlink.com 1.10,2013-03-22 17:23:00,
2013-03-22 12:39:00,34.6,21.0,30.07,East,94,6.0,8.0,58,0.00,,,0.00,weatherlink.com 1.10,2013-03-22 17:39:00,
2013-03-22 12:53:00,34.3,20.0,30.07,ENE,73,0.0,9.0,56,0.00,,,0.00,weatherlink.com 1.10,2013-03-22 17:53:00,
2013-03-22 13:08:00,34.7,21.0,30.07,ENE,73,0.0,8.0,57,0.00,,,0.00,weatherlink.com 1.10,2013-03-22 18:08:00,
2013-03-22 13:23:00,35.8,21.0,30.06,ENE,73,5.0,7.0,55,0.00,,,0.00,weatherlink.com 1.10,2013-03-22 18:23:00,
2013-03-22 13:39:00,35.4,20.0,30.06,ENE,77,0.0,8.0,54,0.00,,,0.00,weatherlink.com 1.10,2013-03-22 18:39:00,
2013-03-22 13:54:00,36.8,21.0,30.05,ENE,78,2.0,8.0,54,0.00,,,0.00,weatherlink.com 1.10,2013-03-22 18:54:00,
2013-03-22 14:09:00,36.6,20.0,30.05,ENE,76,7.0,8.0,52,0.00,,,0.00,weatherlink.com 1.10,2013-03-22 19:09:00,
2013-03-22 14:24:00,35.8,20.0,30.05,ENE,78,0.0,4.0,54,0.00,,,0.00,weatherlink.com 1.10,2013-03-22 19:24:00,
2013-03-22 14:39:00,36.5,21.0,30.05,ENE,78,0.0,3.0,53,0.00,,,0.00,weatherlink.com 1.10,2013-03-22 19:39:00,
2013-03-22 14:54:00,36.4,20.0,30.04,ENE,78,0.0,5.0,51,0.00,,,0.00,weatherlink.com 1.10,2013-03-22 19:54:00,
2013-03-22 15:09:00,36.5,20.0,30.04,ENE,78,3.0,5.0,52,0.00,,,0.00,weatherlink.com 1.10,2013-03-22 20:09:00,
2013-03-22 15:24:00,36.9,21.0,30.04,East,83,6.0,9.0,52,0.00,,,0.00,weatherlink.com 1.10,2013-03-22 20:24:00,
2013-03-22 15:39:00,36.9,20.0,30.03,East,83,0.0,6.0,51,0.00,,,0.00,weatherlink.com 1.10,2013-03-22 20:39:00,
2013-03-22 15:54:00,36.8,20.0,30.03,East,83,0.0,5.0,51,0.00,,,0.00,weatherlink.com 1.10,2013-03-22 20:54:00,
2013-03-22 16:09:00,36.9,21.0,30.03,East,84,3.0,8.0,53,0.00,,,0.00,weatherlink.com 1.10,2013-03-22 21:09:00,
2013-03-22 16:24:00,37.3,21.0,30.03,East,84,0.0,6.0,52,0.00,,,0.00,weatherlink.com 1.10,2013-03-22 21:24:00,
2013-03-22 16:39:00,37.1,20.0,30.02,East,82,0.0,4.0,51,0.00,,,0.00,weatherlink.com 1.10,2013-03-22 21:39:00,
2013-03-22 16:54:00,37.0,20.0,30.03,East,81,0.0,3.0,51,0.00,,,0.00,weatherlink.com 1.10,2013-03-22 21:54:00,
2013-03-22 17:09:00,36.7,20.0,30.03,East,81,2.0,4.0,51,0.00,,,0.00,weatherlink.com 1.10,2013-03-22 22:09:00,
2013-03-22 17:24:00,36.8,20.0,30.03,East,81,5.0,5.0,51,0.00,,,0.00,weatherlink.com 1.10,2013-03-22 22:24:00,
2013-03-22 17:39:00,36.6,20.0,30.03,East,81,0.0,0.0,51,0.00,,,0.00,weatherlink.com 1.10,2013-03-22 22:39:00,
2013-03-22 17:54:00,36.6,20.0,30.04,East,81,0.0,0.0,51,0.00,,,0.00,weatherlink.com 1.10,2013-03-22 22:54:00,
2013-03-22 18:09:00,36.3,20.0,30.04,East,81,0.0,0.0,51,0.00,,,0.00,weatherlink.com 1.10,2013-03-22 23:09:00,
2013-03-22 18:24:00,36.1,19.0,30.06,East,81,0.0,0.0,51,0.00,,,0.00,weatherlink.com 1.10,2013-03-22 23:24:00,
2013-03-22 18:39:00,35.8,20.0,30.06,East,81,0.0,0.0,53,0.00,,,0.00,weatherlink.com 1.10,2013-03-22 23:39:00,
2013-03-22 18:54:00,35.5,20.0,30.06,East,81,0.0,0.0,53,0.00,,,0.00,weatherlink.com 1.10,2013-03-22 23:54:00,
2013-03-22 19:09:00,34.9,21.0,30.06,East,81,0.0,3.0,57,0.00,,,0.00,weatherlink.com 1.10,2013-03-23 00:09:00,
2013-03-22 19:24:00,34.7,22.0,30.06,East,81,0.0,0.0,59,0.00,,,0.00,weatherlink.com 1.10,2013-03-23 00:24:00,
2013-03-22 19:39:00,34.4,22.0,30.06,East,81,0.0,4.0,60,0.00,,,0.00,weatherlink.com 1.10,2013-03-23 00:39:00,
2013-03-22 19:54:00,34.2,21.0,30.05,East,81,0.0,4.0,60,0.00,,,0.00,weatherlink.com 1.10,2013-03-23 00:54:00,
2013-03-22 20:09:00,34.0,22.0,30.06,East,81,0.0,0.0,61,0.00,,,0.00,weatherlink.com 1.10,2013-03-23 01:09:00,
2013-03-22 20:24:00,33.8,22.0,30.06,East,81,0.0,0.0,62,0.00,,,0.00,weatherlink.com 1.10,2013-03-23 01:24:00,
2013-03-22 20:39:00,33.6,23.0,30.07,East,80,0.0,4.0,64,0.00,,,0.00,weatherlink.com 1.10,2013-03-23 01:39:00,
2013-03-22 20:54:00,33.4,23.0,30.07,East,80,0.0,0.0,67,0.00,,,0.00,weatherlink.com 1.10,2013-03-23 01:54:00,
2013-03-22 21:09:00,33.2,24.0,30.07,East,80,0.0,4.0,68,0.00,,,0.00,weatherlink.com 1.10,2013-03-23 02:09:00,
2013-03-22 21:24:00,32.9,24.0,30.08,East,80,0.0,0.0,69,0.00,,,0.00,weatherlink.com 1.10,2013-03-23 02:24:00,
2013-03-22 21:39:00,32.6,24.0,30.07,East,80,0.0,5.0,71,0.00,,,0.00,weatherlink.com 1.10,2013-03-23 02:39:00,
2013-03-22 21:54:00,32.3,24.0,30.08,ENE,78,3.0,8.0,72,0.00,,,0.00,weatherlink.com 1.10,2013-03-23 02:54:00,
2013-03-22 22:09:00,31.9,24.0,30.09,ENE,76,3.0,8.0,73,0.00,,,0.00,weatherlink.com 1.10,2013-03-23 03:09:00,
2013-03-22 22:24:00,31.7,24.0,30.09,ENE,75,1.0,7.0,74,0.00,,,0.00,weatherlink.com 1.10,2013-03-23 03:24:00,
2013-03-22 22:39:00,31.7,25.0,30.10,ENE,72,0.0,5.0,76,0.00,,,0.00,weatherlink.com 1.10,2013-03-23 03:39:00,
2013-03-22 22:54:00,31.8,25.0,30.10,ENE,71,2.0,7.0,76,0.00,,,0.00,weatherlink.com 1.10,2013-03-23 03:54:00,
2013-03-22 23:09:00,31.7,25.0,30.10,ENE,68,4.0,8.0,76,0.00,,,0.00,weatherlink.com 1.10,2013-03-23 04:09:00,
2013-03-22 23:24:00,31.6,25.0,30.10,ENE,67,0.0,4.0,76,0.00,,,0.00,weatherlink.com 1.10,2013-03-23 04:24:00,
2013-03-22 23:39:00,31.4,25.0,30.10,ENE,67,4.0,7.0,76,0.00,,,0.00,weatherlink.com 1.10,2013-03-23 04:39:00,
2013-03-22 23:54:00,31.2,24.0,30.10,ENE,62,4.0,9.0,76,0.00,,,0.00,weatherlink.com 1.10,2013-03-23 04:54:00,